createdAt,value
2019-03-03T00:00:36.471Z,41.40
2019-03-03T00:03:03.551Z,41.40
2019-03-03T00:05:30.507Z,41.30
2019-03-03T00:07:57.575Z,41.30
2019-03-03T00:10:24.342Z,41.40
2019-03-03T00:12:51.525Z,41.30
2019-03-03T00:15:18.587Z,41.30
2019-03-03T00:17:45.329Z,41.30
2019-03-03T00:20:13.898Z,41.30
2019-03-03T00:22:41.267Z,41.30
2019-03-03T00:25:10.315Z,41.30
2019-03-03T00:27:37.367Z,41.40
2019-03-03T00:30:20.059Z,41.40
2019-03-03T00:32:46.789Z,41.30
2019-03-03T00:35:14.371Z,41.30
2019-03-03T00:37:47.057Z,41.30
2019-03-03T00:40:22.796Z,41.30
2019-03-03T00:42:52.142Z,41.30
2019-03-03T00:45:20.793Z,41.30
2019-03-03T00:47:52.267Z,41.30
2019-03-03T00:50:20.887Z,41.30
2019-03-03T00:53:01.735Z,41.30
2019-03-03T00:55:45.349Z,41.30
2019-03-03T00:58:18.378Z,41.30
2019-03-03T01:00:47.267Z,41.30
2019-03-03T01:03:18.543Z,41.30
2019-03-03T01:05:57.689Z,41.40
2019-03-03T01:08:41.240Z,41.30
2019-03-03T01:11:10.662Z,41.30
2019-03-03T01:13:42.291Z,41.30
2019-03-03T01:16:28.188Z,41.40
2019-03-03T01:19:06.422Z,41.40
2019-03-03T01:21:50.307Z,41.30
2019-03-03T01:24:24.699Z,41.40
2019-03-03T01:26:51.585Z,41.30
2019-03-03T01:29:18.793Z,41.30
2019-03-03T01:31:45.569Z,41.30
2019-03-03T01:34:12.772Z,41.30
2019-03-03T01:36:39.940Z,41.30
2019-03-03T01:39:06.805Z,41.30
2019-03-03T01:41:33.572Z,41.30
2019-03-03T01:44:00.963Z,41.30
2019-03-03T01:46:27.778Z,41.30
2019-03-03T01:48:54.656Z,41.30
2019-03-03T01:51:21.588Z,41.30
2019-03-03T01:53:48.408Z,41.30
2019-03-03T01:56:15.259Z,41.30
2019-03-03T01:58:42.319Z,42.00
2019-03-03T02:01:09.624Z,41.40
2019-03-03T02:03:37.278Z,41.40
2019-03-03T02:06:05.926Z,41.30
2019-03-03T02:08:32.937Z,41.30
2019-03-03T02:11:00.115Z,41.40
2019-03-03T02:13:26.897Z,41.30
2019-03-03T02:15:54.092Z,41.50
2019-03-03T02:18:20.873Z,41.30
2019-03-03T02:20:48.099Z,41.30
2019-03-03T02:23:16.443Z,41.30
2019-03-03T02:25:43.390Z,41.10
2019-03-03T02:28:10.458Z,41.30
2019-03-03T02:30:37.191Z,41.20
2019-03-03T02:33:04.263Z,41.20
2019-03-03T02:35:31.453Z,41.30
2019-03-03T02:37:58.543Z,41.30
2019-03-03T02:40:25.382Z,41.30
2019-03-03T02:42:52.358Z,41.30
2019-03-03T02:45:19.098Z,41.20
2019-03-03T02:47:46.311Z,41.20
2019-03-03T02:50:14.671Z,41.20
2019-03-03T02:52:41.501Z,41.20
2019-03-03T02:55:11.529Z,41.20
2019-03-03T02:57:38.252Z,41.20
2019-03-03T03:00:24.124Z,41.20
2019-03-03T03:02:52.542Z,41.20
2019-03-03T03:05:32.209Z,41.20
2019-03-03T03:08:06.764Z,41.20
2019-03-03T03:10:52.411Z,41.20
2019-03-03T03:13:29.927Z,41.20
2019-03-03T03:15:58.570Z,41.20
2019-03-03T03:18:27.268Z,41.20
2019-03-03T03:21:04.615Z,41.20
2019-03-03T03:23:31.744Z,41.20
2019-03-03T03:26:09.289Z,41.20
2019-03-03T03:28:40.917Z,41.20
2019-03-03T03:31:18.645Z,41.20
2019-03-03T03:33:45.383Z,41.20
2019-03-03T03:36:14.098Z,41.20
2019-03-03T03:38:59.531Z,41.20
2019-03-03T03:41:28.149Z,41.20
2019-03-03T03:44:06.027Z,41.20
2019-03-03T03:46:34.647Z,41.20
2019-03-03T03:49:12.620Z,41.20
2019-03-03T03:51:50.371Z,41.20
2019-03-03T03:54:25.027Z,41.20
2019-03-03T03:56:53.824Z,41.20
2019-03-03T03:59:22.480Z,41.20
2019-03-03T04:02:09.786Z,41.30
2019-03-03T04:04:53.528Z,41.20
2019-03-03T04:07:37.480Z,41.20
2019-03-03T04:10:17.896Z,41.80
2019-03-03T04:13:03.282Z,41.20
2019-03-03T04:15:44.083Z,41.20
2019-03-03T04:18:13.074Z,41.20
2019-03-03T04:20:41.904Z,41.30
2019-03-03T04:23:27.210Z,41.20
2019-03-03T04:25:55.712Z,41.20
2019-03-03T04:28:41.156Z,41.20
2019-03-03T04:31:20.175Z,41.20
2019-03-03T04:33:49.139Z,41.20
2019-03-03T04:36:18.204Z,41.20
2019-03-03T04:38:59.456Z,41.20
2019-03-03T04:41:28.120Z,41.20
2019-03-03T04:44:02.720Z,41.20
2019-03-03T04:46:31.440Z,41.20
2019-03-03T04:49:16.788Z,41.20
2019-03-03T04:52:02.268Z,41.20
2019-03-03T04:54:42.848Z,41.20
2019-03-03T04:57:15.733Z,41.20
2019-03-03T04:59:50.127Z,41.20
2019-03-03T05:02:19.096Z,41.20
2019-03-03T05:04:54.486Z,41.20
2019-03-03T05:07:26.549Z,41.20
2019-03-03T05:09:55.209Z,41.20
2019-03-03T05:12:41.011Z,41.20
2019-03-03T05:15:11.934Z,41.20
2019-03-03T05:17:38.780Z,41.20
2019-03-03T05:20:16.891Z,41.20
2019-03-03T05:22:43.715Z,41.20
2019-03-03T05:25:10.828Z,41.20
2019-03-03T05:27:37.541Z,41.20
2019-03-03T05:30:09.569Z,41.20
2019-03-03T05:32:36.646Z,41.20
2019-03-03T05:35:06.158Z,41.20
2019-03-03T05:37:33.000Z,41.30
2019-03-03T05:40:00.351Z,41.20
2019-03-03T05:42:27.098Z,41.20
2019-03-03T05:44:53.911Z,41.20
2019-03-03T05:47:20.679Z,41.20
2019-03-03T05:49:47.406Z,41.30
2019-03-03T05:52:14.363Z,41.10
2019-03-03T05:54:41.091Z,41.10
2019-03-03T05:57:08.155Z,41.20
2019-03-03T05:59:34.860Z,41.20
2019-03-03T06:02:01.705Z,41.20
2019-03-03T06:04:28.604Z,41.30
2019-03-03T06:06:55.347Z,41.20
2019-03-03T06:09:22.061Z,41.10
2019-03-03T06:11:48.823Z,41.10
2019-03-03T06:14:15.565Z,41.20
2019-03-03T06:16:42.318Z,41.20
2019-03-03T06:19:09.072Z,41.10
2019-03-03T06:21:35.887Z,41.20
2019-03-03T06:24:02.746Z,41.10
2019-03-03T06:26:29.830Z,41.10
2019-03-03T06:28:56.597Z,41.10
2019-03-03T06:31:23.385Z,41.10
2019-03-03T06:33:50.122Z,41.10
2019-03-03T06:36:16.907Z,41.10
2019-03-03T06:38:43.658Z,41.10
2019-03-03T06:41:10.696Z,41.10
2019-03-03T06:43:38.389Z,41.10
2019-03-03T06:46:05.547Z,41.10
2019-03-03T06:48:32.607Z,41.10
2019-03-03T06:50:59.332Z,41.10
2019-03-03T06:53:26.170Z,41.30
2019-03-03T06:55:52.939Z,41.00
2019-03-03T06:58:19.698Z,41.10
2019-03-03T07:00:46.809Z,41.00
2019-03-03T07:03:13.597Z,41.00
2019-03-03T07:05:40.734Z,41.00
2019-03-03T07:08:07.861Z,41.10
2019-03-03T07:10:34.809Z,41.00
2019-03-03T07:13:02.045Z,41.00
2019-03-03T07:15:28.787Z,41.00
2019-03-03T07:17:56.172Z,40.90
2019-03-03T07:20:22.903Z,41.00
2019-03-03T07:22:49.666Z,41.00
2019-03-03T07:25:16.476Z,40.90
2019-03-03T07:27:43.541Z,41.00
2019-03-03T07:30:14.405Z,40.90
2019-03-03T07:32:43.145Z,41.70
2019-03-03T07:35:09.882Z,41.00
2019-03-03T07:37:36.674Z,40.90
2019-03-03T07:40:06.015Z,41.00
2019-03-03T07:42:33.187Z,41.00
2019-03-03T07:44:59.934Z,41.00
2019-03-03T07:47:27.094Z,40.90
2019-03-03T07:49:53.950Z,40.90
2019-03-03T07:52:21.128Z,40.90
2019-03-03T07:54:47.865Z,40.90
2019-03-03T07:57:14.822Z,40.90
2019-03-03T07:59:41.608Z,40.90
2019-03-03T08:02:08.559Z,40.90
2019-03-03T08:04:35.303Z,40.90
2019-03-03T08:07:03.516Z,40.90
2019-03-03T08:09:30.415Z,40.90
2019-03-03T08:11:57.775Z,40.80
2019-03-03T08:14:24.512Z,40.90
2019-03-03T08:16:51.228Z,40.80
2019-03-03T08:19:17.972Z,40.80
2019-03-03T08:21:45.125Z,40.80
2019-03-03T08:24:12.236Z,40.80
2019-03-03T08:26:39.072Z,40.80
2019-03-03T08:29:05.852Z,41.20
2019-03-03T08:31:32.632Z,40.80
2019-03-03T08:33:59.817Z,40.80
2019-03-03T08:36:26.869Z,40.70
2019-03-03T08:38:53.619Z,40.80
2019-03-03T08:41:20.456Z,40.80
2019-03-03T08:43:49.159Z,40.80
2019-03-03T08:46:17.903Z,40.70
2019-03-03T08:49:04.691Z,40.80
2019-03-03T08:51:36.928Z,40.80
2019-03-03T08:54:03.912Z,40.80
2019-03-03T08:56:43.059Z,40.80
2019-03-03T08:59:17.991Z,40.80
2019-03-03T09:02:03.455Z,40.80
2019-03-03T09:04:44.703Z,40.80
2019-03-03T09:07:16.541Z,40.80
2019-03-03T09:10:01.244Z,40.70
2019-03-03T09:12:29.892Z,40.80
2019-03-03T09:15:10.860Z,40.80
2019-03-03T09:17:46.598Z,40.80
2019-03-03T09:20:19.980Z,40.80
2019-03-03T09:22:57.808Z,40.70
2019-03-03T09:25:35.611Z,40.70
2019-03-03T09:28:13.614Z,40.70
2019-03-03T09:30:48.394Z,40.60
2019-03-03T09:33:30.375Z,40.60
2019-03-03T09:35:57.134Z,40.60
2019-03-03T09:38:23.926Z,40.60
2019-03-03T09:41:08.425Z,40.60
2019-03-03T09:43:53.833Z,40.50
2019-03-03T09:46:44.286Z,40.50
2019-03-03T09:49:14.647Z,40.50
2019-03-03T09:51:46.456Z,40.50
2019-03-03T09:54:16.388Z,40.50
2019-03-03T09:56:48.949Z,40.50
2019-03-03T09:59:25.234Z,40.50
2019-03-03T10:01:58.429Z,40.50
2019-03-03T10:04:30.326Z,40.50
2019-03-03T10:07:08.113Z,40.50
2019-03-03T10:09:53.617Z,40.50
2019-03-03T10:12:22.404Z,40.50
2019-03-03T10:14:51.052Z,40.50
2019-03-03T10:17:36.525Z,40.50
2019-03-03T10:20:21.296Z,40.50
2019-03-03T10:22:50.894Z,40.40
2019-03-03T10:25:34.605Z,40.50
2019-03-03T10:28:20.443Z,40.50
2019-03-03T10:30:52.261Z,40.50
2019-03-03T10:33:38.804Z,40.50
2019-03-03T10:36:13.405Z,40.50
2019-03-03T10:38:43.221Z,41.10
2019-03-03T10:41:18.098Z,40.50
2019-03-03T10:43:58.688Z,40.50
2019-03-03T10:46:36.251Z,41.10
2019-03-03T10:49:13.698Z,41.00
2019-03-03T10:51:45.227Z,40.50
2019-03-03T10:54:20.794Z,40.40
2019-03-03T10:56:49.484Z,40.40
2019-03-03T10:59:18.176Z,40.40
2019-03-03T11:01:46.852Z,40.30
2019-03-03T11:04:32.321Z,40.40
2019-03-03T11:07:07.144Z,40.30
2019-03-03T11:09:41.918Z,40.40
2019-03-03T11:12:22.618Z,40.40
2019-03-03T11:15:00.055Z,40.30
2019-03-03T11:17:35.506Z,40.40
2019-03-03T11:20:19.035Z,40.60
2019-03-03T11:22:56.595Z,40.70
2019-03-03T11:25:27.848Z,40.50
2019-03-03T11:27:56.536Z,40.60
2019-03-03T11:30:41.991Z,40.50
2019-03-03T11:33:25.654Z,40.50
2019-03-03T11:35:54.288Z,40.50
2019-03-03T11:38:23.591Z,40.50
2019-03-03T11:40:56.177Z,40.60
2019-03-03T11:43:30.717Z,40.50
2019-03-03T11:46:15.854Z,40.50
2019-03-03T11:49:01.011Z,40.50
2019-03-03T11:51:47.949Z,41.30
2019-03-03T11:54:29.228Z,40.60
2019-03-03T11:57:02.251Z,40.70
2019-03-03T11:59:43.982Z,40.70
2019-03-03T12:02:14.498Z,40.70
2019-03-03T12:05:00.299Z,40.70
2019-03-03T12:07:44.345Z,40.70
2019-03-03T12:10:22.228Z,40.60
2019-03-03T12:12:49.154Z,40.60
2019-03-03T12:15:18.308Z,40.50
2019-03-03T12:17:59.395Z,40.50
2019-03-03T12:20:40.681Z,40.60
2019-03-03T12:23:13.614Z,40.50
2019-03-03T12:25:45.161Z,40.70
2019-03-03T12:28:22.089Z,40.70
2019-03-03T12:30:58.153Z,40.70
2019-03-03T12:33:29.930Z,40.60
2019-03-03T12:36:16.924Z,40.60
2019-03-03T12:38:51.629Z,40.60
2019-03-03T12:41:32.441Z,40.80
2019-03-03T12:44:01.623Z,40.70
2019-03-03T12:46:40.488Z,40.70
2019-03-03T12:49:09.865Z,40.70
2019-03-03T12:51:41.340Z,40.70
2019-03-03T12:54:12.639Z,40.70
2019-03-03T12:56:53.340Z,40.60
2019-03-03T12:59:38.719Z,40.60
2019-03-03T13:02:08.093Z,40.60
2019-03-03T13:04:48.900Z,40.60
2019-03-03T13:07:17.547Z,40.60
2019-03-03T13:10:03.068Z,40.60
2019-03-03T13:12:47.543Z,40.60
2019-03-03T13:15:14.724Z,40.50
2019-03-03T13:17:48.456Z,40.60
2019-03-03T13:20:23.907Z,40.60
2019-03-03T13:22:52.693Z,40.60
2019-03-03T13:25:21.495Z,40.60
2019-03-03T13:27:48.583Z,40.60
2019-03-03T13:30:15.754Z,40.60
2019-03-03T13:32:46.995Z,40.70
2019-03-03T13:35:22.650Z,40.60
2019-03-03T13:38:04.914Z,40.60
2019-03-03T13:40:31.731Z,40.60
2019-03-03T13:42:58.959Z,40.60
2019-03-03T13:45:28.357Z,40.60
2019-03-03T13:47:55.144Z,40.60
2019-03-03T13:50:22.593Z,40.60
2019-03-03T13:52:49.513Z,40.60
2019-03-03T13:55:16.381Z,40.60
2019-03-03T13:57:43.228Z,40.60
2019-03-03T14:00:16.257Z,40.50
2019-03-03T14:02:43.368Z,40.20
2019-03-03T14:05:10.250Z,40.50
2019-03-03T14:07:37.194Z,40.50
2019-03-03T14:10:08.370Z,40.80
2019-03-03T14:12:35.311Z,40.60
2019-03-03T14:15:05.481Z,40.50
2019-03-03T14:17:32.201Z,40.50
2019-03-03T14:19:58.969Z,40.50
2019-03-03T14:22:26.106Z,40.50
2019-03-03T14:24:53.434Z,40.50
2019-03-03T14:27:20.375Z,40.50
2019-03-03T14:29:47.329Z,40.90
2019-03-03T14:32:14.069Z,40.50
2019-03-03T14:34:40.816Z,40.50
2019-03-03T14:37:07.701Z,40.50
2019-03-03T14:39:34.497Z,40.50
2019-03-03T14:42:01.240Z,40.40
2019-03-03T14:44:27.982Z,40.40
2019-03-03T14:46:54.915Z,40.40
2019-03-03T14:49:21.641Z,40.40
2019-03-03T14:51:48.392Z,40.40
2019-03-03T14:54:15.220Z,40.40
2019-03-03T14:56:42.819Z,40.40
2019-03-03T14:59:09.768Z,41.00
2019-03-03T15:01:36.568Z,40.40
2019-03-03T15:04:03.382Z,40.40
2019-03-03T15:06:30.119Z,40.40
2019-03-03T15:08:56.939Z,40.40
2019-03-03T15:11:23.697Z,40.40
2019-03-03T15:13:50.441Z,40.40
2019-03-03T15:16:17.178Z,40.40
2019-03-03T15:18:44.007Z,40.30
2019-03-03T15:21:11.287Z,40.30
2019-03-03T15:23:38.042Z,40.30
2019-03-03T15:26:04.779Z,40.30
2019-03-03T15:28:31.561Z,40.30
2019-03-03T15:30:58.635Z,40.40
2019-03-03T15:33:25.343Z,40.40
2019-03-03T15:35:52.485Z,40.40
2019-03-03T15:38:19.260Z,40.30
2019-03-03T15:40:46.150Z,40.40
2019-03-03T15:43:12.862Z,40.40
2019-03-03T15:45:39.626Z,40.40
2019-03-03T15:48:06.522Z,40.40
2019-03-03T15:50:33.261Z,40.40
2019-03-03T15:53:00.038Z,40.40
2019-03-03T15:55:30.671Z,40.50
2019-03-03T15:57:57.458Z,40.40
2019-03-03T16:00:37.950Z,41.00
2019-03-03T16:03:04.794Z,40.40
2019-03-03T16:05:32.584Z,40.40
2019-03-03T16:07:59.467Z,40.40
2019-03-03T16:10:26.696Z,40.50
2019-03-03T16:12:53.460Z,40.40
2019-03-03T16:15:20.638Z,40.50
2019-03-03T16:17:47.685Z,40.40
2019-03-03T16:20:20.065Z,40.40
2019-03-03T16:22:47.229Z,40.40
2019-03-03T16:25:20.400Z,40.60
2019-03-03T16:27:47.464Z,40.50
2019-03-03T16:30:22.282Z,40.50
2019-03-03T16:32:50.240Z,40.50
2019-03-03T16:35:17.090Z,40.50
2019-03-03T16:37:44.160Z,40.50
2019-03-03T16:40:17.673Z,40.50
2019-03-03T16:42:44.466Z,40.50
2019-03-03T16:45:15.319Z,40.60
2019-03-03T16:47:42.396Z,40.60
2019-03-03T16:50:22.691Z,40.50
2019-03-03T16:52:49.522Z,40.60
2019-03-03T16:55:18.137Z,40.50
2019-03-03T16:57:45.289Z,40.50
2019-03-03T17:00:27.030Z,40.60
2019-03-03T17:02:53.796Z,40.60
2019-03-03T17:05:28.330Z,40.50
2019-03-03T17:07:55.086Z,40.50
2019-03-03T17:10:22.300Z,40.60
2019-03-03T17:12:49.165Z,40.50
2019-03-03T17:15:23.509Z,40.60
2019-03-03T17:17:50.325Z,40.60
2019-03-03T17:20:17.631Z,40.60
2019-03-03T17:22:44.985Z,40.60
2019-03-03T17:25:27.340Z,40.60
2019-03-03T17:27:54.072Z,40.60
2019-03-03T17:30:22.613Z,40.60
2019-03-03T17:32:49.392Z,40.60
2019-03-03T17:35:16.236Z,40.60
2019-03-03T17:37:43.464Z,40.60
2019-03-03T17:40:13.928Z,41.20
2019-03-03T17:42:40.705Z,40.70
2019-03-03T17:45:19.265Z,40.60
2019-03-03T17:47:46.197Z,40.60
2019-03-03T17:50:16.118Z,40.70
2019-03-03T17:52:44.937Z,40.70
2019-03-03T17:55:14.649Z,40.70
2019-03-03T17:57:41.756Z,40.70
2019-03-03T18:00:26.143Z,40.70
2019-03-03T18:02:53.102Z,40.70
2019-03-03T18:05:20.301Z,40.60
2019-03-03T18:07:47.610Z,40.70
2019-03-03T18:10:14.439Z,40.70
2019-03-03T18:12:41.544Z,40.70
2019-03-03T18:15:14.352Z,40.60
2019-03-03T18:17:41.667Z,40.70
2019-03-03T18:20:20.519Z,40.70
2019-03-03T18:22:47.912Z,40.60
2019-03-03T18:25:16.810Z,40.60
2019-03-03T18:27:43.609Z,40.60
2019-03-03T18:30:15.762Z,40.70
2019-03-03T18:32:42.544Z,40.60
2019-03-03T18:35:09.432Z,40.60
2019-03-03T18:37:36.525Z,40.70
2019-03-03T18:40:10.506Z,41.10
2019-03-03T18:42:37.605Z,40.70
2019-03-03T18:45:09.074Z,40.70
2019-03-03T18:47:36.404Z,40.70
2019-03-03T18:50:09.069Z,40.80
2019-03-03T18:52:35.784Z,40.70
2019-03-03T18:55:06.260Z,40.70
2019-03-03T18:57:33.020Z,40.70
2019-03-03T19:00:00.132Z,40.70
2019-03-03T19:02:27.004Z,40.70
2019-03-03T19:04:53.792Z,40.70
2019-03-03T19:07:20.777Z,40.70
2019-03-03T19:09:47.550Z,40.70
2019-03-03T19:12:14.260Z,40.70
2019-03-03T19:14:41.026Z,40.70
2019-03-03T19:17:07.840Z,40.60
2019-03-03T19:19:35.005Z,40.70
2019-03-03T19:22:01.715Z,40.70
2019-03-03T19:24:28.808Z,40.60
2019-03-03T19:26:55.927Z,40.70
2019-03-03T19:29:22.769Z,40.70
2019-03-03T19:31:50.773Z,40.70
2019-03-03T19:34:17.998Z,40.70
2019-03-03T19:36:45.915Z,40.70
2019-03-03T19:39:13.296Z,40.70
2019-03-03T19:41:40.460Z,40.70
2019-03-03T19:44:07.389Z,40.70
2019-03-03T19:46:34.160Z,40.70
2019-03-03T19:49:00.899Z,40.70
2019-03-03T19:51:28.901Z,40.90
2019-03-03T19:53:55.751Z,40.70
2019-03-03T19:56:22.492Z,40.70
2019-03-03T19:58:49.211Z,40.70
2019-03-03T20:01:15.942Z,40.70
2019-03-03T20:03:53.592Z,40.70
2019-03-03T20:06:23.129Z,40.70
2019-03-03T20:08:50.777Z,40.70
2019-03-03T20:11:18.515Z,40.70
2019-03-03T20:13:45.647Z,40.70
2019-03-03T20:16:13.034Z,40.70
2019-03-03T20:18:41.446Z,40.70
2019-03-03T20:21:08.466Z,40.80
2019-03-03T20:23:35.340Z,40.70
2019-03-03T20:26:02.433Z,40.80
2019-03-03T20:28:29.313Z,40.70
2019-03-03T20:30:57.248Z,40.70
2019-03-03T20:33:24.294Z,40.70
2019-03-03T20:35:51.100Z,40.70
2019-03-03T20:38:17.848Z,40.70
2019-03-03T20:40:44.643Z,40.70
2019-03-03T20:43:11.702Z,40.70
2019-03-03T20:45:38.580Z,40.70
2019-03-03T20:48:05.870Z,40.70
2019-03-03T20:50:33.219Z,40.70
2019-03-03T20:53:00.172Z,40.20
2019-03-03T20:55:29.853Z,40.70
2019-03-03T20:57:57.154Z,40.80
2019-03-03T21:00:28.907Z,40.70
2019-03-03T21:02:56.361Z,40.10
2019-03-03T21:05:23.605Z,40.70
2019-03-03T21:07:51.925Z,40.70
2019-03-03T21:10:28.760Z,40.70
2019-03-03T21:12:55.632Z,40.70
2019-03-03T21:15:22.552Z,40.70
2019-03-03T21:17:49.602Z,40.70
2019-03-03T21:20:18.767Z,40.70
2019-03-03T21:22:46.437Z,40.70
2019-03-03T21:25:15.188Z,40.70
2019-03-03T21:27:41.961Z,40.70
2019-03-03T21:30:24.175Z,41.10
2019-03-03T21:32:51.162Z,40.70
2019-03-03T21:35:17.938Z,40.70
2019-03-03T21:37:44.937Z,40.80
2019-03-03T21:40:15.835Z,40.70
2019-03-03T21:42:43.025Z,40.80
2019-03-03T21:45:15.487Z,40.70
2019-03-03T21:47:42.529Z,40.70
2019-03-03T21:50:12.805Z,40.70
2019-03-03T21:52:39.575Z,40.70
2019-03-03T21:55:09.302Z,40.80
2019-03-03T21:57:36.059Z,40.80
2019-03-03T22:00:29.345Z,40.70
2019-03-03T22:02:56.445Z,40.70
2019-03-03T22:05:25.220Z,40.70
2019-03-03T22:07:52.313Z,40.70
2019-03-03T22:10:21.441Z,40.70
2019-03-03T22:12:50.059Z,40.70
2019-03-03T22:15:16.781Z,40.80
2019-03-03T22:17:43.705Z,40.70
2019-03-03T22:20:11.028Z,40.70
2019-03-03T22:22:37.905Z,40.70
2019-03-03T22:25:10.549Z,40.70
2019-03-03T22:27:37.728Z,40.70
2019-03-03T22:30:11.298Z,40.70
2019-03-03T22:32:38.399Z,40.70
2019-03-03T22:35:06.901Z,40.70
2019-03-03T22:37:34.196Z,40.70
2019-03-03T22:40:01.058Z,40.80
2019-03-03T22:42:27.893Z,40.80
2019-03-03T22:44:55.019Z,40.70
2019-03-03T22:47:22.209Z,40.80
2019-03-03T22:49:49.060Z,40.80
2019-03-03T22:52:16.092Z,40.70
2019-03-03T22:54:42.850Z,40.80
2019-03-03T22:57:09.824Z,40.70
2019-03-03T22:59:36.644Z,40.90
2019-03-03T23:02:06.639Z,40.70
2019-03-03T23:04:59.411Z,40.70
2019-03-03T23:07:35.211Z,40.70
2019-03-03T23:10:36.801Z,40.70
2019-03-03T23:13:15.322Z,40.70
2019-03-03T23:16:07.511Z,40.70
2019-03-03T23:19:12.857Z,40.70
2019-03-03T23:22:22.728Z,40.70
2019-03-03T23:25:04.231Z,40.70
2019-03-03T23:27:31.008Z,40.80
2019-03-03T23:29:57.825Z,40.70
2019-03-03T23:32:24.744Z,40.70
2019-03-03T23:34:52.179Z,41.10
2019-03-03T23:37:19.292Z,40.70
2019-03-03T23:39:46.527Z,40.70
2019-03-03T23:42:13.477Z,40.80
2019-03-03T23:44:40.751Z,40.70
2019-03-03T23:47:07.676Z,40.70
2019-03-03T23:49:35.148Z,40.70
2019-03-03T23:52:02.130Z,40.70
2019-03-03T23:54:29.545Z,40.80
2019-03-03T23:56:56.485Z,40.80
2019-03-03T23:59:24.044Z,40.80
